This is the latest recevied weather packets stored in our database for station/object eb1ayw-13. If no packets are shown the sender has not sent any weather packets the latest 10 day(s).
| Time | Temp. | Humidity | Pressure | Rain* | Wind** | Luminosity | Snow |
|---|---|---|---|---|---|---|---|
| 1777624857 | 47.22° C | 15% | 1007.3 hPa | - | - | - | - |
| 1777624257 | 48.33° C | 14% | 1007.2 hPa | - | - | - | - |
| 1777623657 | 52.22° C | 12% | 1006.2 hPa | - | - | - | - |
| 1777623057 | 47.78° C | 15% | 1007.2 hPa | - | - | - | - |
| 1777622457 | 47.78° C | 15% | 1007.2 hPa | - | - | - | - |
| 1777621857 | 48.33° C | 14% | 1007.1 hPa | - | - | - | - |
| 1777621257 | 51.67° C | 12% | 1006.2 hPa | - | - | - | - |
| 1777620657 | 48.89° C | 14% | 1006.9 hPa | - | - | - | - |
| 1777620058 | 43.89° C | 17% | 1008 hPa | - | - | - | - |
| 1777619457 | 43.89° C | 16% | 1008 hPa | - | - | - | - |
| 1777618858 | 46.11° C | 15% | 1007.5 hPa | - | - | - | - |
| 1777618257 | 48.89° C | 13% | 1006.7 hPa | - | - | - | - |
| 1777617657 | 47.78° C | 13% | 1006.7 hPa | - | - | - | - |
| 1777617058 | 52.22° C | 11% | 1005.6 hPa | - | - | - | - |
| 1777616457 | 47.78° C | 14% | 1006.6 hPa | - | - | - | - |
| 1777615857 | 42.78° C | 16% | 1007.8 hPa | - | - | - | - |
| 1777615257 | 41.67° C | 17% | 1008.1 hPa | - | - | - | - |
| 1777614657 | 46.11° C | 14% | 1007.1 hPa | - | - | - | - |
| 1777614057 | 45° C | 15% | 1007.4 hPa | - | - | - | - |
| 1777613457 | 45.56° C | 15% | 1007.3 hPa | - | - | - | - |
| 1777612857 | 40° C | 19% | 1008.7 hPa | - | - | - | - |
| 1777612257 | 48.33° C | 13% | 1006.4 hPa | - | - | - | - |
| 1777611657 | 44.44° C | 16% | 1007.5 hPa | - | - | - | - |
| 1777611058 | 41.11° C | 19% | 1008.3 hPa | - | - | - | - |
| 1777610457 | 42.78° C | 17% | 1007.9 hPa | - | - | - | - |
* Rain since midnight (hover to see other rain measurements)
** Current wind speed in m/s (hover to see current wind gust speed)